Terminal Aerodrome Forecast
Issued by NWS Lake Charles, LA

Home | Current Version | Previous Version | Text Only | Print | Product List | Glossary On
Versions: 1 2 3 4 5 6 7 8 9 10 11 12 13 14 15 16 17 18 19 20
000
FTUS44 KLCH 221400 AAA
TAFBPT
TAF AMD
KBPT 221416Z 2214/2312 12007KT 4SM BR OVC002
      TEMPO 2214/2216 SCT002 OVC009
     FM221600 19012G22KT P6SM OVC009
     FM222000 22010G20KT P6SM OVC013
     FM230400 VRB04KT 2SM BR SCT002 OVC018
     FM231000 06007KT 1SM BR SCT002 OVC015=

USA.gov is the U.S. government's official web portal to all federal, state and local government web resources and services.